Terminal Aerodrome Forecast
Issued by NWS Lake Charles, LA

Home | Current Version | Previous Version | Text Only | Print | Product List | Glossary On
Versions: 1 2 3 4 5 6 7 8 9 10 11 12 13 14 15 16 17 18
299
FTUS44 KLCH 220520
TAFBPT
TAF
KBPT 220520Z 2206/2306 04008KT P6SM BKN050
     FM221000 03012KT P6SM SCT050
     FM221500 01016G24KT P6SM SKC
     FM230100 35009KT P6SM SKC=

USA.gov is the U.S. government's official web portal to all federal, state and local government web resources and services.